sensor_id;sensor_type;location;lat;lon;timestamp;P1;durP1;ratioP1;P2;durP2;ratioP2
37349;SDS011;23231;52.358;4.926;2023-03-04T00:00:14;11.55;;;2.47;;
37349;SDS011;23231;52.358;4.926;2023-03-04T00:05:15;13.38;;;2.40;;
37349;SDS011;23231;52.358;4.926;2023-03-04T00:10:15;8.93;;;2.10;;
37349;SDS011;23231;52.358;4.926;2023-03-04T00:15:16;10.98;;;2.42;;
37349;SDS011;23231;52.358;4.926;2023-03-04T00:20:16;13.13;;;2.00;;
37349;SDS011;23231;52.358;4.926;2023-03-04T00:25:17;13.65;;;2.33;;
37349;SDS011;23231;52.358;4.926;2023-03-04T00:30:17;12.32;;;2.30;;
37349;SDS011;23231;52.358;4.926;2023-03-04T00:35:18;10.70;;;1.98;;
37349;SDS011;23231;52.358;4.926;2023-03-04T00:40:18;11.40;;;2.35;;
37349;SDS011;23231;52.358;4.926;2023-03-04T00:45:18;11.75;;;3.20;;
37349;SDS011;23231;52.358;4.926;2023-03-04T00:50:19;14.02;;;2.97;;
37349;SDS011;23231;52.358;4.926;2023-03-04T00:55:19;11.25;;;1.90;;
37349;SDS011;23231;52.358;4.926;2023-03-04T01:00:20;10.25;;;2.20;;
37349;SDS011;23231;52.358;4.926;2023-03-04T01:05:20;9.00;;;2.42;;
37349;SDS011;23231;52.358;4.926;2023-03-04T01:10:21;10.55;;;2.25;;
37349;SDS011;23231;52.358;4.926;2023-03-04T01:15:21;11.70;;;2.10;;
37349;SDS011;23231;52.358;4.926;2023-03-04T01:20:22;11.23;;;1.90;;
37349;SDS011;23231;52.358;4.926;2023-03-04T01:25:22;11.10;;;2.20;;
37349;SDS011;23231;52.358;4.926;2023-03-04T01:30:23;9.90;;;1.95;;
37349;SDS011;23231;52.358;4.926;2023-03-04T01:35:23;14.18;;;1.83;;
37349;SDS011;23231;52.358;4.926;2023-03-04T01:40:23;10.90;;;2.38;;
37349;SDS011;23231;52.358;4.926;2023-03-04T01:45:24;15.32;;;2.28;;
37349;SDS011;23231;52.358;4.926;2023-03-04T01:50:30;13.60;;;2.17;;
37349;SDS011;23231;52.358;4.926;2023-03-04T01:55:32;10.13;;;2.17;;
37349;SDS011;23231;52.358;4.926;2023-03-04T02:00:32;10.10;;;1.80;;
37349;SDS011;23231;52.358;4.926;2023-03-04T02:05:34;6.93;;;1.95;;
37349;SDS011;23231;52.358;4.926;2023-03-04T02:10:36;9.82;;;1.73;;
37349;SDS011;23231;52.358;4.926;2023-03-04T02:15:37;12.63;;;1.90;;
37349;SDS011;23231;52.358;4.926;2023-03-04T02:26:02;8.00;;;1.80;;
37349;SDS011;23231;52.358;4.926;2023-03-04T02:31:43;9.57;;;1.83;;
37349;SDS011;23231;52.358;4.926;2023-03-04T02:36:54;8.18;;;1.55;;
37349;SDS011;23231;52.358;4.926;2023-03-04T02:41:55;13.57;;;2.10;;
37349;SDS011;23231;52.358;4.926;2023-03-04T02:46:55;11.07;;;2.53;;
37349;SDS011;23231;52.358;4.926;2023-03-04T02:57:13;10.13;;;1.88;;
37349;SDS011;23231;52.358;4.926;2023-03-04T03:02:14;12.15;;;1.58;;
37349;SDS011;23231;52.358;4.926;2023-03-04T03:07:14;11.75;;;1.80;;
37349;SDS011;23231;52.358;4.926;2023-03-04T03:12:15;8.60;;;1.23;;
37349;SDS011;23231;52.358;4.926;2023-03-04T03:17:15;8.82;;;1.70;;
37349;SDS011;23231;52.358;4.926;2023-03-04T03:22:15;6.20;;;1.35;;
37349;SDS011;23231;52.358;4.926;2023-03-04T03:27:16;13.30;;;2.50;;
37349;SDS011;23231;52.358;4.926;2023-03-04T03:32:16;6.45;;;1.45;;
37349;SDS011;23231;52.358;4.926;2023-03-04T03:37:17;9.05;;;1.95;;
37349;SDS011;23231;52.358;4.926;2023-03-04T03:42:17;9.70;;;1.60;;
37349;SDS011;23231;52.358;4.926;2023-03-04T03:47:18;10.35;;;1.60;;
37349;SDS011;23231;52.358;4.926;2023-03-04T03:52:18;7.18;;;1.70;;
37349;SDS011;23231;52.358;4.926;2023-03-04T03:57:19;7.78;;;1.50;;
37349;SDS011;23231;52.358;4.926;2023-03-04T04:02:19;8.57;;;1.50;;
37349;SDS011;23231;52.358;4.926;2023-03-04T04:07:20;12.05;;;1.50;;
37349;SDS011;23231;52.358;4.926;2023-03-04T04:12:20;7.20;;;1.52;;
37349;SDS011;23231;52.358;4.926;2023-03-04T04:17:20;10.35;;;2.05;;
37349;SDS011;23231;52.358;4.926;2023-03-04T04:22:21;11.32;;;1.73;;
37349;SDS011;23231;52.358;4.926;2023-03-04T04:27:21;10.93;;;1.92;;
37349;SDS011;23231;52.358;4.926;2023-03-04T04:32:22;9.13;;;1.52;;
37349;SDS011;23231;52.358;4.926;2023-03-04T04:37:22;6.72;;;1.50;;
37349;SDS011;23231;52.358;4.926;2023-03-04T04:42:22;9.50;;;1.80;;
37349;SDS011;23231;52.358;4.926;2023-03-04T04:47:23;16.83;;;2.35;;
37349;SDS011;23231;52.358;4.926;2023-03-04T04:52:24;9.95;;;1.73;;
37349;SDS011;23231;52.358;4.926;2023-03-04T04:57:24;9.18;;;1.80;;
37349;SDS011;23231;52.358;4.926;2023-03-04T05:02:24;15.20;;;2.10;;
37349;SDS011;23231;52.358;4.926;2023-03-04T05:07:25;5.20;;;1.45;;
37349;SDS011;23231;52.358;4.926;2023-03-04T05:12:25;13.18;;;2.17;;
37349;SDS011;23231;52.358;4.926;2023-03-04T05:17:26;7.97;;;1.75;;
37349;SDS011;23231;52.358;4.926;2023-03-04T05:22:26;9.85;;;1.52;;
37349;SDS011;23231;52.358;4.926;2023-03-04T05:27:26;8.93;;;2.08;;
37349;SDS011;23231;52.358;4.926;2023-03-04T05:32:27;8.18;;;1.90;;
37349;SDS011;23231;52.358;4.926;2023-03-04T05:37:27;10.30;;;2.10;;
37349;SDS011;23231;52.358;4.926;2023-03-04T05:42:27;9.27;;;2.58;;
37349;SDS011;23231;52.358;4.926;2023-03-04T05:47:28;9.30;;;2.22;;
37349;SDS011;23231;52.358;4.926;2023-03-04T05:52:28;6.38;;;1.20;;
37349;SDS011;23231;52.358;4.926;2023-03-04T05:57:29;8.40;;;1.83;;
37349;SDS011;23231;52.358;4.926;2023-03-04T06:02:29;6.88;;;1.55;;
37349;SDS011;23231;52.358;4.926;2023-03-04T06:07:29;8.48;;;1.52;;
37349;SDS011;23231;52.358;4.926;2023-03-04T06:12:30;8.60;;;1.35;;
37349;SDS011;23231;52.358;4.926;2023-03-04T06:17:31;6.28;;;1.50;;
37349;SDS011;23231;52.358;4.926;2023-03-04T06:22:32;7.47;;;1.50;;
37349;SDS011;23231;52.358;4.926;2023-03-04T06:27:33;8.60;;;1.83;;
37349;SDS011;23231;52.358;4.926;2023-03-04T06:32:34;6.63;;;1.50;;
37349;SDS011;23231;52.358;4.926;2023-03-04T06:37:34;3.85;;;0.93;;
37349;SDS011;23231;52.358;4.926;2023-03-04T06:42:35;3.88;;;1.00;;
37349;SDS011;23231;52.358;4.926;2023-03-04T06:47:35;6.68;;;1.23;;
37349;SDS011;23231;52.358;4.926;2023-03-04T06:52:36;6.17;;;1.23;;
37349;SDS011;23231;52.358;4.926;2023-03-04T06:57:36;5.80;;;1.27;;
37349;SDS011;23231;52.358;4.926;2023-03-04T07:02:37;6.53;;;1.30;;
37349;SDS011;23231;52.358;4.926;2023-03-04T07:07:37;5.13;;;1.50;;
37349;SDS011;23231;52.358;4.926;2023-03-04T07:12:38;6.80;;;1.60;;
37349;SDS011;23231;52.358;4.926;2023-03-04T07:17:38;6.63;;;2.03;;
37349;SDS011;23231;52.358;4.926;2023-03-04T07:22:38;9.70;;;2.13;;
37349;SDS011;23231;52.358;4.926;2023-03-04T07:27:39;8.15;;;2.47;;
37349;SDS011;23231;52.358;4.926;2023-03-04T07:32:39;5.57;;;1.52;;
37349;SDS011;23231;52.358;4.926;2023-03-04T07:37:40;11.95;;;2.17;;
37349;SDS011;23231;52.358;4.926;2023-03-04T07:42:40;3.85;;;1.75;;
37349;SDS011;23231;52.358;4.926;2023-03-04T07:47:41;6.28;;;1.83;;
37349;SDS011;23231;52.358;4.926;2023-03-04T07:52:42;10.90;;;2.00;;
37349;SDS011;23231;52.358;4.926;2023-03-04T07:57:45;6.68;;;1.60;;
37349;SDS011;23231;52.358;4.926;2023-03-04T08:02:46;5.72;;;1.50;;
37349;SDS011;23231;52.358;4.926;2023-03-04T08:07:46;4.22;;;1.50;;
37349;SDS011;23231;52.358;4.926;2023-03-04T08:12:47;2.63;;;1.10;;
37349;SDS011;23231;52.358;4.926;2023-03-04T08:17:47;6.75;;;1.60;;
37349;SDS011;23231;52.358;4.926;2023-03-04T08:22:48;10.45;;;1.95;;
37349;SDS011;23231;52.358;4.926;2023-03-04T08:27:48;7.22;;;2.17;;
37349;SDS011;23231;52.358;4.926;2023-03-04T08:32:48;5.47;;;2.05;;
37349;SDS011;23231;52.358;4.926;2023-03-04T08:37:49;8.63;;;2.50;;
37349;SDS011;23231;52.358;4.926;2023-03-04T08:42:49;6.38;;;2.17;;
37349;SDS011;23231;52.358;4.926;2023-03-04T08:47:50;8.57;;;2.30;;
37349;SDS011;23231;52.358;4.926;2023-03-04T08:52:50;7.82;;;1.77;;
37349;SDS011;23231;52.358;4.926;2023-03-04T08:57:51;6.57;;;1.98;;
37349;SDS011;23231;52.358;4.926;2023-03-04T09:02:51;8.38;;;2.33;;
37349;SDS011;23231;52.358;4.926;2023-03-04T09:07:52;9.23;;;2.45;;
37349;SDS011;23231;52.358;4.926;2023-03-04T09:12:53;11.32;;;3.05;;
37349;SDS011;23231;52.358;4.926;2023-03-04T09:17:53;6.78;;;2.75;;
37349;SDS011;23231;52.358;4.926;2023-03-04T09:22:54;8.90;;;2.38;;
37349;SDS011;23231;52.358;4.926;2023-03-04T09:27:55;4.57;;;1.33;;
37349;SDS011;23231;52.358;4.926;2023-03-04T09:32:55;7.07;;;2.38;;
37349;SDS011;23231;52.358;4.926;2023-03-04T09:37:56;4.95;;;0.90;;
37349;SDS011;23231;52.358;4.926;2023-03-04T09:43:01;2.83;;;1.08;;
37349;SDS011;23231;52.358;4.926;2023-03-04T09:48:03;5.93;;;1.25;;
37349;SDS011;23231;52.358;4.926;2023-03-04T10:13:56;3.88;;;0.80;;
37349;SDS011;23231;52.358;4.926;2023-03-04T10:19:01;4.22;;;1.00;;
37349;SDS011;23231;52.358;4.926;2023-03-04T10:24:11;10.85;;;2.35;;
37349;SDS011;23231;52.358;4.926;2023-03-04T10:29:18;5.75;;;1.30;;
37349;SDS011;23231;52.358;4.926;2023-03-04T10:34:20;4.50;;;1.75;;
37349;SDS011;23231;52.358;4.926;2023-03-04T10:39:24;8.45;;;1.70;;
37349;SDS011;23231;52.358;4.926;2023-03-04T10:44:26;7.20;;;1.67;;
37349;SDS011;23231;52.358;4.926;2023-03-04T10:49:28;5.78;;;1.10;;
37349;SDS011;23231;52.358;4.926;2023-03-04T10:54:30;2.33;;;0.60;;
37349;SDS011;23231;52.358;4.926;2023-03-04T11:10:12;2.53;;;0.90;;
37349;SDS011;23231;52.358;4.926;2023-03-04T11:15:18;7.30;;;1.58;;
37349;SDS011;23231;52.358;4.926;2023-03-04T11:20:33;5.78;;;1.45;;
37349;SDS011;23231;52.358;4.926;2023-03-04T11:25:35;4.15;;;1.00;;
37349;SDS011;23231;52.358;4.926;2023-03-04T11:30:47;2.63;;;0.80;;
37349;SDS011;23231;52.358;4.926;2023-03-04T11:36:24;5.18;;;1.70;;
37349;SDS011;23231;52.358;4.926;2023-03-04T11:41:31;6.50;;;1.30;;
37349;SDS011;23231;52.358;4.926;2023-03-04T11:56:58;10.57;;;1.77;;
37349;SDS011;23231;52.358;4.926;2023-03-04T12:02:18;11.65;;;2.22;;
37349;SDS011;23231;52.358;4.926;2023-03-04T12:23:49;9.73;;;1.80;;
37349;SDS011;23231;52.358;4.926;2023-03-04T12:29:12;9.20;;;2.08;;
37349;SDS011;23231;52.358;4.926;2023-03-04T12:34:25;14.57;;;2.30;;
37349;SDS011;23231;52.358;4.926;2023-03-04T12:39:31;15.35;;;2.53;;
37349;SDS011;23231;52.358;4.926;2023-03-04T12:44:34;20.38;;;2.67;;
37349;SDS011;23231;52.358;4.926;2023-03-04T12:55:10;14.07;;;3.15;;
37349;SDS011;23231;52.358;4.926;2023-03-04T13:10:45;12.00;;;2.10;;
37349;SDS011;23231;52.358;4.926;2023-03-04T13:15:46;11.52;;;2.58;;
37349;SDS011;23231;52.358;4.926;2023-03-04T13:26:17;9.70;;;2.25;;
37349;SDS011;23231;52.358;4.926;2023-03-04T13:31:21;7.88;;;1.50;;
37349;SDS011;23231;52.358;4.926;2023-03-04T13:36:27;8.18;;;1.75;;
37349;SDS011;23231;52.358;4.926;2023-03-04T13:41:32;13.18;;;2.30;;
37349;SDS011;23231;52.358;4.926;2023-03-04T13:46:45;12.23;;;1.98;;
37349;SDS011;23231;52.358;4.926;2023-03-04T13:51:46;8.23;;;1.65;;
37349;SDS011;23231;52.358;4.926;2023-03-04T14:01:51;11.23;;;2.30;;
37349;SDS011;23231;52.358;4.926;2023-03-04T14:07:29;9.52;;;2.33;;
37349;SDS011;23231;52.358;4.926;2023-03-04T14:12:35;11.02;;;2.40;;
37349;SDS011;23231;52.358;4.926;2023-03-04T14:17:56;8.50;;;1.70;;
37349;SDS011;23231;52.358;4.926;2023-03-04T14:22:58;10.13;;;2.40;;
37349;SDS011;23231;52.358;4.926;2023-03-04T14:28:01;11.65;;;2.03;;
37349;SDS011;23231;52.358;4.926;2023-03-04T14:33:17;10.70;;;2.00;;
37349;SDS011;23231;52.358;4.926;2023-03-04T14:38:24;10.93;;;1.42;;
37349;SDS011;23231;52.358;4.926;2023-03-04T14:43:28;9.80;;;1.83;;
37349;SDS011;23231;52.358;4.926;2023-03-04T14:48:30;6.68;;;1.92;;
37349;SDS011;23231;52.358;4.926;2023-03-04T14:53:32;9.25;;;1.90;;
37349;SDS011;23231;52.358;4.926;2023-03-04T14:58:34;5.43;;;1.65;;
37349;SDS011;23231;52.358;4.926;2023-03-04T15:03:37;5.45;;;1.20;;
37349;SDS011;23231;52.358;4.926;2023-03-04T15:08:39;7.40;;;1.70;;
37349;SDS011;23231;52.358;4.926;2023-03-04T15:13:44;3.80;;;0.93;;
37349;SDS011;23231;52.358;4.926;2023-03-04T15:19:04;2.67;;;0.95;;
37349;SDS011;23231;52.358;4.926;2023-03-04T15:24:19;5.47;;;1.20;;
37349;SDS011;23231;52.358;4.926;2023-03-04T15:29:20;6.60;;;1.52;;
37349;SDS011;23231;52.358;4.926;2023-03-04T15:34:21;4.22;;;1.20;;
37349;SDS011;23231;52.358;4.926;2023-03-04T15:39:21;8.68;;;1.70;;
37349;SDS011;23231;52.358;4.926;2023-03-04T15:44:22;7.53;;;1.50;;
37349;SDS011;23231;52.358;4.926;2023-03-04T15:49:23;6.20;;;1.80;;
37349;SDS011;23231;52.358;4.926;2023-03-04T15:54:23;13.55;;;2.33;;
37349;SDS011;23231;52.358;4.926;2023-03-04T15:59:25;11.23;;;2.30;;
37349;SDS011;23231;52.358;4.926;2023-03-04T16:04:26;11.65;;;2.22;;
37349;SDS011;23231;52.358;4.926;2023-03-04T16:09:26;9.77;;;1.90;;
37349;SDS011;23231;52.358;4.926;2023-03-04T16:14:26;8.18;;;1.70;;
37349;SDS011;23231;52.358;4.926;2023-03-04T16:19:27;10.55;;;1.70;;
37349;SDS011;23231;52.358;4.926;2023-03-04T16:24:27;12.48;;;2.75;;
37349;SDS011;23231;52.358;4.926;2023-03-04T16:29:30;13.77;;;2.40;;
37349;SDS011;23231;52.358;4.926;2023-03-04T16:34:31;13.80;;;2.40;;
37349;SDS011;23231;52.358;4.926;2023-03-04T16:39:32;10.98;;;2.25;;
37349;SDS011;23231;52.358;4.926;2023-03-04T16:44:32;13.60;;;3.13;;
37349;SDS011;23231;52.358;4.926;2023-03-04T16:49:33;9.10;;;2.50;;
37349;SDS011;23231;52.358;4.926;2023-03-04T16:54:34;9.30;;;1.95;;
37349;SDS011;23231;52.358;4.926;2023-03-04T16:59:35;10.52;;;2.95;;
37349;SDS011;23231;52.358;4.926;2023-03-04T17:04:35;12.20;;;2.55;;
37349;SDS011;23231;52.358;4.926;2023-03-04T17:09:35;13.98;;;2.10;;
37349;SDS011;23231;52.358;4.926;2023-03-04T17:14:37;15.43;;;2.70;;
37349;SDS011;23231;52.358;4.926;2023-03-04T17:19:38;11.18;;;1.92;;
37349;SDS011;23231;52.358;4.926;2023-03-04T17:24:38;7.25;;;1.95;;
37349;SDS011;23231;52.358;4.926;2023-03-04T17:29:39;13.25;;;2.67;;
37349;SDS011;23231;52.358;4.926;2023-03-04T17:34:39;9.10;;;2.17;;
37349;SDS011;23231;52.358;4.926;2023-03-04T17:39:40;7.28;;;1.58;;
37349;SDS011;23231;52.358;4.926;2023-03-04T17:44:40;7.57;;;1.50;;
37349;SDS011;23231;52.358;4.926;2023-03-04T17:49:41;10.75;;;2.08;;
37349;SDS011;23231;52.358;4.926;2023-03-04T17:54:43;12.50;;;2.47;;
37349;SDS011;23231;52.358;4.926;2023-03-04T17:59:44;10.40;;;2.40;;
37349;SDS011;23231;52.358;4.926;2023-03-04T18:04:44;9.18;;;2.28;;
37349;SDS011;23231;52.358;4.926;2023-03-04T18:09:47;13.55;;;3.05;;
37349;SDS011;23231;52.358;4.926;2023-03-04T18:14:47;9.20;;;1.85;;
37349;SDS011;23231;52.358;4.926;2023-03-04T18:19:48;12.93;;;2.63;;
37349;SDS011;23231;52.358;4.926;2023-03-04T18:24:48;14.52;;;2.67;;
37349;SDS011;23231;52.358;4.926;2023-03-04T18:29:48;12.25;;;2.72;;
37349;SDS011;23231;52.358;4.926;2023-03-04T18:34:49;12.93;;;2.78;;
37349;SDS011;23231;52.358;4.926;2023-03-04T18:39:49;14.75;;;2.95;;
37349;SDS011;23231;52.358;4.926;2023-03-04T18:44:50;11.77;;;2.92;;
37349;SDS011;23231;52.358;4.926;2023-03-04T18:49:50;14.20;;;2.60;;
37349;SDS011;23231;52.358;4.926;2023-03-04T18:54:50;11.50;;;1.90;;
37349;SDS011;23231;52.358;4.926;2023-03-04T18:59:51;10.48;;;2.17;;
37349;SDS011;23231;52.358;4.926;2023-03-04T19:04:56;9.57;;;2.63;;
37349;SDS011;23231;52.358;4.926;2023-03-04T19:10:00;10.40;;;3.00;;
37349;SDS011;23231;52.358;4.926;2023-03-04T19:15:01;13.23;;;2.72;;
37349;SDS011;23231;52.358;4.926;2023-03-04T19:20:05;13.05;;;2.95;;
37349;SDS011;23231;52.358;4.926;2023-03-04T19:25:07;15.52;;;2.75;;
37349;SDS011;23231;52.358;4.926;2023-03-04T19:30:08;12.45;;;3.08;;
37349;SDS011;23231;52.358;4.926;2023-03-04T19:35:09;16.40;;;3.10;;
37349;SDS011;23231;52.358;4.926;2023-03-04T19:40:09;17.77;;;3.05;;
37349;SDS011;23231;52.358;4.926;2023-03-04T19:45:10;12.93;;;2.73;;
37349;SDS011;23231;52.358;4.926;2023-03-04T19:50:11;9.80;;;2.90;;
37349;SDS011;23231;52.358;4.926;2023-03-04T19:55:12;8.07;;;2.10;;
37349;SDS011;23231;52.358;4.926;2023-03-04T20:00:12;13.10;;;2.67;;
37349;SDS011;23231;52.358;4.926;2023-03-04T20:05:13;12.03;;;3.17;;
37349;SDS011;23231;52.358;4.926;2023-03-04T20:10:14;11.63;;;2.53;;
37349;SDS011;23231;52.358;4.926;2023-03-04T20:15:15;10.23;;;2.87;;
37349;SDS011;23231;52.358;4.926;2023-03-04T20:20:15;12.43;;;2.90;;
37349;SDS011;23231;52.358;4.926;2023-03-04T20:25:16;13.23;;;2.80;;
37349;SDS011;23231;52.358;4.926;2023-03-04T20:30:16;11.53;;;2.70;;
37349;SDS011;23231;52.358;4.926;2023-03-04T20:35:17;16.33;;;2.73;;
37349;SDS011;23231;52.358;4.926;2023-03-04T20:40:18;7.50;;;2.70;;
37349;SDS011;23231;52.358;4.926;2023-03-04T20:45:18;9.63;;;2.43;;
37349;SDS011;23231;52.358;4.926;2023-03-04T20:50:20;8.60;;;3.27;;
37349;SDS011;23231;52.358;4.926;2023-03-04T20:55:20;9.03;;;2.63;;
37349;SDS011;23231;52.358;4.926;2023-03-04T21:00:21;8.53;;;2.30;;
37349;SDS011;23231;52.358;4.926;2023-03-04T21:05:21;8.23;;;2.30;;
37349;SDS011;23231;52.358;4.926;2023-03-04T21:10:21;9.27;;;2.30;;
37349;SDS011;23231;52.358;4.926;2023-03-04T21:15:22;13.90;;;2.43;;
37349;SDS011;23231;52.358;4.926;2023-03-04T21:20:22;8.60;;;1.70;;
37349;SDS011;23231;52.358;4.926;2023-03-04T21:25:23;6.20;;;2.30;;
37349;SDS011;23231;52.358;4.926;2023-03-04T21:30:23;13.23;;;1.70;;
37349;SDS011;23231;52.358;4.926;2023-03-04T21:35:24;12.53;;;2.30;;
37349;SDS011;23231;52.358;4.926;2023-03-04T21:40:24;9.57;;;2.40;;
37349;SDS011;23231;52.358;4.926;2023-03-04T21:45:25;11.33;;;2.03;;
37349;SDS011;23231;52.358;4.926;2023-03-04T21:50:26;7.93;;;3.13;;
37349;SDS011;23231;52.358;4.926;2023-03-04T21:55:26;8.93;;;3.13;;
37349;SDS011;23231;52.358;4.926;2023-03-04T22:00:27;9.87;;;2.80;;
37349;SDS011;23231;52.358;4.926;2023-03-04T22:05:27;9.20;;;2.53;;
37349;SDS011;23231;52.358;4.926;2023-03-04T22:10:27;5.60;;;2.20;;
37349;SDS011;23231;52.358;4.926;2023-03-04T22:15:28;19.47;;;4.20;;
37349;SDS011;23231;52.358;4.926;2023-03-04T22:20:28;12.50;;;3.83;;
37349;SDS011;23231;52.358;4.926;2023-03-04T22:25:29;7.83;;;2.60;;
37349;SDS011;23231;52.358;4.926;2023-03-04T22:30:30;8.17;;;2.40;;
37349;SDS011;23231;52.358;4.926;2023-03-04T22:35:31;7.97;;;2.07;;
37349;SDS011;23231;52.358;4.926;2023-03-04T22:40:32;6.97;;;2.20;;
37349;SDS011;23231;52.358;4.926;2023-03-04T22:45:32;8.17;;;2.77;;
37349;SDS011;23231;52.358;4.926;2023-03-04T22:50:33;9.47;;;3.40;;
37349;SDS011;23231;52.358;4.926;2023-03-04T22:55:34;9.73;;;3.40;;
37349;SDS011;23231;52.358;4.926;2023-03-04T23:00:34;11.63;;;2.87;;
37349;SDS011;23231;52.358;4.926;2023-03-04T23:05:36;13.50;;;3.63;;
37349;SDS011;23231;52.358;4.926;2023-03-04T23:10:39;11.67;;;3.07;;
37349;SDS011;23231;52.358;4.926;2023-03-04T23:15:40;11.90;;;3.43;;
37349;SDS011;23231;52.358;4.926;2023-03-04T23:20:40;8.17;;;2.87;;
37349;SDS011;23231;52.358;4.926;2023-03-04T23:25:43;11.93;;;4.17;;
37349;SDS011;23231;52.358;4.926;2023-03-04T23:30:45;13.13;;;4.00;;
37349;SDS011;23231;52.358;4.926;2023-03-04T23:35:45;9.97;;;3.13;;
37349;SDS011;23231;52.358;4.926;2023-03-04T23:40:46;9.30;;;2.63;;
37349;SDS011;23231;52.358;4.926;2023-03-04T23:45:46;6.93;;;2.00;;
37349;SDS011;23231;52.358;4.926;2023-03-04T23:50:53;7.60;;;2.27;;
37349;SDS011;23231;52.358;4.926;2023-03-04T23:55:53;7.90;;;2.07;;
